Godman Army Airfield (FTK)

 

Airport Diagram
Current Weather/Forecast (LIFR Conditions)
METAR KFTK 251656Z AUTO 08011KT 10SM OVC003 03/03 A2977 RMK AO2 RAE49 SLP089 P0014 T00260026
TAF TAF AMD KFTK 251710Z 2517/2618 08012KT 6000 -RA BR OVC003 QNH2970INS TEMPO 2517/2521 09014G20KT 3200 TSRA BECMG 2520/2521 07010KT 4800 RA BR OVC004 WS020/23035KT QNH2957INS TEMPO 2521/2603 22013G20KT 1600 TSRA BR BECMG 2608/2609 24009KT 4800 -RA BR OVC005 QNH2959INS BECMG 2611/2612 24012KT 9000 -DZ BR OVC007 QNH2965INS TX10/2606Z TN03/2517Z

Airport Information

All Charts
General
Chart Name View
AIRPORT DIAGRAM
AIRPORT DIAGRAM
TAKEOFF MINIMUMS
TAKEOFF MINIMUMS

Arrivals
Chart Name Download
CHERI FOUR
CHERI FOUR

Approaches
Chart Name Download
ILS OR LOC/DME RWY 18
RNAV (GPS) RWY 15
RNAV (GPS) RWY 18
RNAV (GPS) RWY 36
VOR/DME RWY 15
VOR/DME RWY 18
VOR/DME RWY 36
ILS OR LOC/DME RWY 18
RNAV (GPS) RWY 15
RNAV (GPS) RWY 18
RNAV (GPS) RWY 36
VOR/DME RWY 15
VOR/DME RWY 18
VOR/DME RWY 36


Airport Statistics
Departures Arrivals Local
All Collected Stats since June 2016: 25 25 0
2021 Stats: 0 0 0
January Stats: 0 0 0

Inbound Traffic (Arrivals) - 0

No inbound traffic.


Outbound Traffic (Departures) - 0

No outbound traffic.


Local Traffic (Pattern) - 0

No local traffic.